sensor_id;sensor_type;location;lat;lon;timestamp;temperature;humidity
18083;DHT22;9168;51.194;6.840;2023-05-16T00:01:07;13.60;99.90
18083;DHT22;9168;51.194;6.840;2023-05-16T00:03:34;13.60;99.90
18083;DHT22;9168;51.194;6.840;2023-05-16T00:06:02;13.60;99.90
18083;DHT22;9168;51.194;6.840;2023-05-16T00:08:31;13.60;99.90
18083;DHT22;9168;51.194;6.840;2023-05-16T00:10:57;13.50;99.90
18083;DHT22;9168;51.194;6.840;2023-05-16T00:13:24;13.50;99.90
18083;DHT22;9168;51.194;6.840;2023-05-16T00:15:52;13.50;99.90
18083;DHT22;9168;51.194;6.840;2023-05-16T00:18:20;13.50;99.90
18083;DHT22;9168;51.194;6.840;2023-05-16T00:20:47;13.40;99.90
18083;DHT22;9168;51.194;6.840;2023-05-16T00:23:13;13.40;99.90
18083;DHT22;9168;51.194;6.840;2023-05-16T00:25:43;13.40;99.90
18083;DHT22;9168;51.194;6.840;2023-05-16T00:28:11;13.30;99.90
18083;DHT22;9168;51.194;6.840;2023-05-16T00:30:38;13.30;99.90
18083;DHT22;9168;51.194;6.840;2023-05-16T00:33:05;13.30;99.90
18083;DHT22;9168;51.194;6.840;2023-05-16T00:35:32;13.30;99.90
18083;DHT22;9168;51.194;6.840;2023-05-16T00:37:58;13.30;99.90
18083;DHT22;9168;51.194;6.840;2023-05-16T00:40:25;13.30;99.90
18083;DHT22;9168;51.194;6.840;2023-05-16T00:42:54;13.20;99.90
18083;DHT22;9168;51.194;6.840;2023-05-16T00:45:21;13.20;99.90
18083;DHT22;9168;51.194;6.840;2023-05-16T00:47:48;13.20;99.90
18083;DHT22;9168;51.194;6.840;2023-05-16T00:50:15;13.20;99.90
18083;DHT22;9168;51.194;6.840;2023-05-16T00:52:42;13.10;99.90
18083;DHT22;9168;51.194;6.840;2023-05-16T00:55:09;13.10;99.90
18083;DHT22;9168;51.194;6.840;2023-05-16T00:57:36;13.10;99.90
18083;DHT22;9168;51.194;6.840;2023-05-16T01:00:06;13.00;99.90
18083;DHT22;9168;51.194;6.840;2023-05-16T01:02:36;13.00;99.90
18083;DHT22;9168;51.194;6.840;2023-05-16T01:05:03;12.90;99.90
18083;DHT22;9168;51.194;6.840;2023-05-16T01:07:31;12.90;99.90
18083;DHT22;9168;51.194;6.840;2023-05-16T01:09:58;12.80;99.90
18083;DHT22;9168;51.194;6.840;2023-05-16T01:12:31;12.80;99.90
18083;DHT22;9168;51.194;6.840;2023-05-16T01:15:06;12.80;99.90
18083;DHT22;9168;51.194;6.840;2023-05-16T01:17:42;12.70;99.90
18083;DHT22;9168;51.194;6.840;2023-05-16T01:20:17;12.80;99.90
18083;DHT22;9168;51.194;6.840;2023-05-16T01:22:54;12.70;99.90
18083;DHT22;9168;51.194;6.840;2023-05-16T01:25:35;12.70;99.90
18083;DHT22;9168;51.194;6.840;2023-05-16T01:28:06;12.70;99.90
18083;DHT22;9168;51.194;6.840;2023-05-16T01:30:37;12.70;99.90
18083;DHT22;9168;51.194;6.840;2023-05-16T01:33:04;12.70;99.90
18083;DHT22;9168;51.194;6.840;2023-05-16T01:35:32;12.70;99.90
18083;DHT22;9168;51.194;6.840;2023-05-16T01:38:04;12.60;99.90
18083;DHT22;9168;51.194;6.840;2023-05-16T01:40:40;12.60;99.90
18083;DHT22;9168;51.194;6.840;2023-05-16T01:43:14;12.60;99.90
18083;DHT22;9168;51.194;6.840;2023-05-16T01:45:48;12.60;99.90
18083;DHT22;9168;51.194;6.840;2023-05-16T01:48:20;12.50;99.90
18083;DHT22;9168;51.194;6.840;2023-05-16T01:50:51;12.50;99.90
18083;DHT22;9168;51.194;6.840;2023-05-16T01:53:24;12.50;99.90
18083;DHT22;9168;51.194;6.840;2023-05-16T01:55:55;12.50;99.90
18083;DHT22;9168;51.194;6.840;2023-05-16T01:58:26;12.40;99.90
18083;DHT22;9168;51.194;6.840;2023-05-16T02:00:55;12.40;99.90
18083;DHT22;9168;51.194;6.840;2023-05-16T02:03:25;12.30;99.90
18083;DHT22;9168;51.194;6.840;2023-05-16T02:05:52;12.30;99.90
18083;DHT22;9168;51.194;6.840;2023-05-16T02:08:19;12.30;99.90
18083;DHT22;9168;51.194;6.840;2023-05-16T02:10:46;12.30;99.90
18083;DHT22;9168;51.194;6.840;2023-05-16T02:13:13;12.30;99.90
18083;DHT22;9168;51.194;6.840;2023-05-16T02:15:41;12.20;99.90
18083;DHT22;9168;51.194;6.840;2023-05-16T02:18:08;12.10;99.90
18083;DHT22;9168;51.194;6.840;2023-05-16T02:20:35;12.10;99.90
18083;DHT22;9168;51.194;6.840;2023-05-16T02:23:02;12.00;99.90
18083;DHT22;9168;51.194;6.840;2023-05-16T02:25:29;12.00;99.90
18083;DHT22;9168;51.194;6.840;2023-05-16T02:27:56;11.90;99.90
18083;DHT22;9168;51.194;6.840;2023-05-16T02:30:23;11.80;99.90
18083;DHT22;9168;51.194;6.840;2023-05-16T02:32:51;11.90;99.90
18083;DHT22;9168;51.194;6.840;2023-05-16T02:35:18;11.90;99.90
18083;DHT22;9168;51.194;6.840;2023-05-16T02:37:45;11.90;99.90
18083;DHT22;9168;51.194;6.840;2023-05-16T02:40:13;11.90;99.90
18083;DHT22;9168;51.194;6.840;2023-05-16T02:42:39;11.90;99.90
18083;DHT22;9168;51.194;6.840;2023-05-16T02:45:07;11.90;99.90
18083;DHT22;9168;51.194;6.840;2023-05-16T02:47:34;12.00;99.90
18083;DHT22;9168;51.194;6.840;2023-05-16T02:50:03;11.90;99.90
18083;DHT22;9168;51.194;6.840;2023-05-16T02:52:29;11.90;99.90
18083;DHT22;9168;51.194;6.840;2023-05-16T02:54:56;11.90;99.90
18083;DHT22;9168;51.194;6.840;2023-05-16T02:57:24;11.80;99.90
18083;DHT22;9168;51.194;6.840;2023-05-16T02:59:51;11.80;99.90
18083;DHT22;9168;51.194;6.840;2023-05-16T03:02:18;11.90;99.90
18083;DHT22;9168;51.194;6.840;2023-05-16T03:04:45;11.80;99.90
18083;DHT22;9168;51.194;6.840;2023-05-16T03:07:13;11.80;99.90
18083;DHT22;9168;51.194;6.840;2023-05-16T03:09:40;11.80;99.90
18083;DHT22;9168;51.194;6.840;2023-05-16T03:12:10;11.80;99.90
18083;DHT22;9168;51.194;6.840;2023-05-16T03:14:36;11.80;99.90
18083;DHT22;9168;51.194;6.840;2023-05-16T03:17:03;11.80;99.90
18083;DHT22;9168;51.194;6.840;2023-05-16T03:19:30;11.80;99.90
18083;DHT22;9168;51.194;6.840;2023-05-16T03:21:57;11.70;99.90
18083;DHT22;9168;51.194;6.840;2023-05-16T03:24:26;11.70;99.90
18083;DHT22;9168;51.194;6.840;2023-05-16T03:26:52;11.70;99.90
18083;DHT22;9168;51.194;6.840;2023-05-16T03:29:19;11.70;99.90
18083;DHT22;9168;51.194;6.840;2023-05-16T03:31:46;11.70;99.90
18083;DHT22;9168;51.194;6.840;2023-05-16T03:34:13;11.70;99.90
18083;DHT22;9168;51.194;6.840;2023-05-16T03:36:40;11.70;99.90
18083;DHT22;9168;51.194;6.840;2023-05-16T03:39:07;11.70;99.90
18083;DHT22;9168;51.194;6.840;2023-05-16T03:41:35;11.70;99.90
18083;DHT22;9168;51.194;6.840;2023-05-16T03:44:02;11.60;99.90
18083;DHT22;9168;51.194;6.840;2023-05-16T03:46:29;11.60;99.90
18083;DHT22;9168;51.194;6.840;2023-05-16T03:48:57;11.60;99.90
18083;DHT22;9168;51.194;6.840;2023-05-16T03:51:24;11.50;99.90
18083;DHT22;9168;51.194;6.840;2023-05-16T03:53:51;11.40;99.90
18083;DHT22;9168;51.194;6.840;2023-05-16T03:56:18;11.40;99.90
18083;DHT22;9168;51.194;6.840;2023-05-16T03:58:50;11.30;99.90
18083;DHT22;9168;51.194;6.840;2023-05-16T04:01:17;11.30;99.90
18083;DHT22;9168;51.194;6.840;2023-05-16T04:03:44;11.20;99.90
18083;DHT22;9168;51.194;6.840;2023-05-16T04:06:11;11.10;99.90
18083;DHT22;9168;51.194;6.840;2023-05-16T04:08:37;11.10;99.90
18083;DHT22;9168;51.194;6.840;2023-05-16T04:11:05;11.00;99.90
18083;DHT22;9168;51.194;6.840;2023-05-16T04:13:32;11.00;99.90
18083;DHT22;9168;51.194;6.840;2023-05-16T04:16:00;10.90;99.90
18083;DHT22;9168;51.194;6.840;2023-05-16T04:18:27;10.90;99.90
18083;DHT22;9168;51.194;6.840;2023-05-16T04:20:54;10.80;99.90
18083;DHT22;9168;51.194;6.840;2023-05-16T04:23:21;10.80;99.90
18083;DHT22;9168;51.194;6.840;2023-05-16T04:25:48;10.70;99.90
18083;DHT22;9168;51.194;6.840;2023-05-16T04:28:15;10.70;99.90
18083;DHT22;9168;51.194;6.840;2023-05-16T04:30:42;10.60;99.90
18083;DHT22;9168;51.194;6.840;2023-05-16T04:33:10;10.60;99.90
18083;DHT22;9168;51.194;6.840;2023-05-16T04:35:37;10.60;99.90
18083;DHT22;9168;51.194;6.840;2023-05-16T04:38:04;10.50;99.90
18083;DHT22;9168;51.194;6.840;2023-05-16T04:40:31;10.60;99.90
18083;DHT22;9168;51.194;6.840;2023-05-16T04:42:58;10.60;99.90
18083;DHT22;9168;51.194;6.840;2023-05-16T04:45:25;10.50;99.90
18083;DHT22;9168;51.194;6.840;2023-05-16T04:47:52;10.50;99.90
18083;DHT22;9168;51.194;6.840;2023-05-16T04:50:20;10.40;99.90
18083;DHT22;9168;51.194;6.840;2023-05-16T04:52:47;10.40;99.90
18083;DHT22;9168;51.194;6.840;2023-05-16T04:55:14;10.50;99.90
18083;DHT22;9168;51.194;6.840;2023-05-16T04:57:40;10.50;99.90
18083;DHT22;9168;51.194;6.840;2023-05-16T05:00:08;10.50;99.90
18083;DHT22;9168;51.194;6.840;2023-05-16T05:02:36;10.50;99.90
18083;DHT22;9168;51.194;6.840;2023-05-16T05:05:04;10.40;99.90
18083;DHT22;9168;51.194;6.840;2023-05-16T05:07:33;10.40;99.90
18083;DHT22;9168;51.194;6.840;2023-05-16T05:10:00;10.50;99.90
18083;DHT22;9168;51.194;6.840;2023-05-16T05:12:27;10.40;99.90
18083;DHT22;9168;51.194;6.840;2023-05-16T05:14:54;10.40;99.90
18083;DHT22;9168;51.194;6.840;2023-05-16T05:17:21;10.40;99.90
18083;DHT22;9168;51.194;6.840;2023-05-16T05:19:49;10.40;99.90
18083;DHT22;9168;51.194;6.840;2023-05-16T05:22:15;10.50;99.90
18083;DHT22;9168;51.194;6.840;2023-05-16T05:24:44;10.40;99.90
18083;DHT22;9168;51.194;6.840;2023-05-16T05:27:11;10.40;99.90
18083;DHT22;9168;51.194;6.840;2023-05-16T05:29:38;10.40;99.90
18083;DHT22;9168;51.194;6.840;2023-05-16T05:32:05;10.40;99.90
18083;DHT22;9168;51.194;6.840;2023-05-16T05:34:33;10.50;99.90
18083;DHT22;9168;51.194;6.840;2023-05-16T05:37:00;10.50;99.90
18083;DHT22;9168;51.194;6.840;2023-05-16T05:39:27;10.50;99.90
18083;DHT22;9168;51.194;6.840;2023-05-16T05:41:55;10.60;99.90
18083;DHT22;9168;51.194;6.840;2023-05-16T05:44:23;10.60;99.90
18083;DHT22;9168;51.194;6.840;2023-05-16T05:46:50;10.60;99.90
18083;DHT22;9168;51.194;6.840;2023-05-16T05:49:16;10.70;99.90
18083;DHT22;9168;51.194;6.840;2023-05-16T05:51:43;10.80;99.90
18083;DHT22;9168;51.194;6.840;2023-05-16T05:54:10;10.90;99.90
18083;DHT22;9168;51.194;6.840;2023-05-16T05:56:37;10.90;99.90
18083;DHT22;9168;51.194;6.840;2023-05-16T05:59:06;10.90;99.90
18083;DHT22;9168;51.194;6.840;2023-05-16T06:01:32;10.90;99.90
18083;DHT22;9168;51.194;6.840;2023-05-16T06:03:59;10.90;99.90
18083;DHT22;9168;51.194;6.840;2023-05-16T06:06:27;11.00;99.90
18083;DHT22;9168;51.194;6.840;2023-05-16T06:08:54;11.00;99.90
18083;DHT22;9168;51.194;6.840;2023-05-16T06:11:20;11.10;99.90
18083;DHT22;9168;51.194;6.840;2023-05-16T06:13:47;11.20;99.90
18083;DHT22;9168;51.194;6.840;2023-05-16T06:16:16;11.20;99.90
18083;DHT22;9168;51.194;6.840;2023-05-16T06:18:43;11.30;99.90
18083;DHT22;9168;51.194;6.840;2023-05-16T06:21:09;11.30;99.90
18083;DHT22;9168;51.194;6.840;2023-05-16T06:23:36;11.40;99.90
18083;DHT22;9168;51.194;6.840;2023-05-16T06:26:03;11.40;99.90
18083;DHT22;9168;51.194;6.840;2023-05-16T06:28:30;11.50;99.90
18083;DHT22;9168;51.194;6.840;2023-05-16T06:30:57;11.50;99.90
18083;DHT22;9168;51.194;6.840;2023-05-16T06:33:25;11.60;99.90
18083;DHT22;9168;51.194;6.840;2023-05-16T06:35:52;11.70;99.90
18083;DHT22;9168;51.194;6.840;2023-05-16T06:38:19;11.80;99.90
18083;DHT22;9168;51.194;6.840;2023-05-16T06:40:46;11.90;99.90
18083;DHT22;9168;51.194;6.840;2023-05-16T06:43:13;12.00;99.90
18083;DHT22;9168;51.194;6.840;2023-05-16T06:45:40;12.10;99.90
18083;DHT22;9168;51.194;6.840;2023-05-16T06:48:07;12.30;99.90
18083;DHT22;9168;51.194;6.840;2023-05-16T06:50:35;12.40;99.90
18083;DHT22;9168;51.194;6.840;2023-05-16T06:53:02;12.60;99.90
18083;DHT22;9168;51.194;6.840;2023-05-16T06:55:29;12.70;99.90
18083;DHT22;9168;51.194;6.840;2023-05-16T06:57:56;12.80;99.90
18083;DHT22;9168;51.194;6.840;2023-05-16T07:00:23;13.00;99.90
18083;DHT22;9168;51.194;6.840;2023-05-16T07:02:51;13.00;99.90
18083;DHT22;9168;51.194;6.840;2023-05-16T07:05:18;13.10;99.90
18083;DHT22;9168;51.194;6.840;2023-05-16T07:07:46;13.10;99.90
18083;DHT22;9168;51.194;6.840;2023-05-16T07:10:14;13.20;99.90
18083;DHT22;9168;51.194;6.840;2023-05-16T07:12:41;13.20;99.90
18083;DHT22;9168;51.194;6.840;2023-05-16T07:15:09;13.10;99.90
18083;DHT22;9168;51.194;6.840;2023-05-16T07:17:38;13.10;99.90
18083;DHT22;9168;51.194;6.840;2023-05-16T07:20:06;13.10;99.90
18083;DHT22;9168;51.194;6.840;2023-05-16T07:22:37;12.90;99.90
18083;DHT22;9168;51.194;6.840;2023-05-16T07:25:07;12.80;99.90
18083;DHT22;9168;51.194;6.840;2023-05-16T07:27:37;12.70;99.90
18083;DHT22;9168;51.194;6.840;2023-05-16T07:30:06;12.60;99.90
18083;DHT22;9168;51.194;6.840;2023-05-16T07:32:34;12.50;99.90
18083;DHT22;9168;51.194;6.840;2023-05-16T07:35:01;12.50;99.90
18083;DHT22;9168;51.194;6.840;2023-05-16T07:37:28;12.30;99.90
18083;DHT22;9168;51.194;6.840;2023-05-16T07:39:54;12.30;99.90
18083;DHT22;9168;51.194;6.840;2023-05-16T07:42:23;12.30;99.90
18083;DHT22;9168;51.194;6.840;2023-05-16T07:44:50;12.20;99.90
18083;DHT22;9168;51.194;6.840;2023-05-16T07:47:16;12.30;99.90
18083;DHT22;9168;51.194;6.840;2023-05-16T07:49:43;12.40;99.90
18083;DHT22;9168;51.194;6.840;2023-05-16T07:52:10;12.50;99.90
18083;DHT22;9168;51.194;6.840;2023-05-16T07:54:37;12.70;99.90
18083;DHT22;9168;51.194;6.840;2023-05-16T07:57:04;12.80;99.90
18083;DHT22;9168;51.194;6.840;2023-05-16T07:59:33;13.00;99.90
18083;DHT22;9168;51.194;6.840;2023-05-16T08:02:00;13.00;99.90
18083;DHT22;9168;51.194;6.840;2023-05-16T08:04:27;13.00;99.90
18083;DHT22;9168;51.194;6.840;2023-05-16T08:06:53;13.00;99.90
18083;DHT22;9168;51.194;6.840;2023-05-16T08:09:20;12.90;99.90
18083;DHT22;9168;51.194;6.840;2023-05-16T08:11:47;12.90;99.90
18083;DHT22;9168;51.194;6.840;2023-05-16T08:14:14;12.90;99.90
18083;DHT22;9168;51.194;6.840;2023-05-16T08:16:42;12.90;99.90
18083;DHT22;9168;51.194;6.840;2023-05-16T08:19:09;12.90;99.90
18083;DHT22;9168;51.194;6.840;2023-05-16T08:21:36;13.00;99.90
18083;DHT22;9168;51.194;6.840;2023-05-16T08:24:03;13.00;99.90
18083;DHT22;9168;51.194;6.840;2023-05-16T08:26:31;13.00;99.90
18083;DHT22;9168;51.194;6.840;2023-05-16T08:28:58;13.00;99.90
18083;DHT22;9168;51.194;6.840;2023-05-16T08:31:25;13.00;99.90
18083;DHT22;9168;51.194;6.840;2023-05-16T08:33:53;13.00;99.90
18083;DHT22;9168;51.194;6.840;2023-05-16T08:36:20;13.20;99.90
18083;DHT22;9168;51.194;6.840;2023-05-16T08:38:48;13.30;99.90
18083;DHT22;9168;51.194;6.840;2023-05-16T08:41:15;13.40;99.90
18083;DHT22;9168;51.194;6.840;2023-05-16T08:43:42;13.60;99.90
18083;DHT22;9168;51.194;6.840;2023-05-16T08:46:08;13.70;99.90
18083;DHT22;9168;51.194;6.840;2023-05-16T08:48:36;13.90;99.90
18083;DHT22;9168;51.194;6.840;2023-05-16T08:51:05;14.00;99.90
18083;DHT22;9168;51.194;6.840;2023-05-16T08:53:39;14.10;99.90
18083;DHT22;9168;51.194;6.840;2023-05-16T08:56:12;14.30;99.90
18083;DHT22;9168;51.194;6.840;2023-05-16T08:58:39;14.50;99.90
18083;DHT22;9168;51.194;6.840;2023-05-16T09:01:07;14.60;99.90
18083;DHT22;9168;51.194;6.840;2023-05-16T09:03:35;14.70;99.90
18083;DHT22;9168;51.194;6.840;2023-05-16T09:06:05;14.80;99.90
18083;DHT22;9168;51.194;6.840;2023-05-16T09:08:32;14.90;99.90
18083;DHT22;9168;51.194;6.840;2023-05-16T09:11:00;15.00;99.90
18083;DHT22;9168;51.194;6.840;2023-05-16T09:13:27;15.00;99.90
18083;DHT22;9168;51.194;6.840;2023-05-16T09:16:11;14.90;99.90
18083;DHT22;9168;51.194;6.840;2023-05-16T09:18:38;14.80;99.90
18083;DHT22;9168;51.194;6.840;2023-05-16T09:21:09;14.70;99.90
18083;DHT22;9168;51.194;6.840;2023-05-16T09:23:36;14.50;99.90
18083;DHT22;9168;51.194;6.840;2023-05-16T09:26:04;14.30;99.90
18083;DHT22;9168;51.194;6.840;2023-05-16T09:28:32;14.30;99.90
18083;DHT22;9168;51.194;6.840;2023-05-16T09:30:59;14.30;99.90
18083;DHT22;9168;51.194;6.840;2023-05-16T09:33:27;14.30;99.90
18083;DHT22;9168;51.194;6.840;2023-05-16T09:35:55;14.40;99.90
18083;DHT22;9168;51.194;6.840;2023-05-16T09:38:24;14.50;99.90
18083;DHT22;9168;51.194;6.840;2023-05-16T09:40:52;14.60;99.90
18083;DHT22;9168;51.194;6.840;2023-05-16T09:43:23;14.70;99.90
18083;DHT22;9168;51.194;6.840;2023-05-16T09:45:50;14.80;99.90
18083;DHT22;9168;51.194;6.840;2023-05-16T09:48:18;14.90;99.90
18083;DHT22;9168;51.194;6.840;2023-05-16T09:50:48;15.00;99.90
18083;DHT22;9168;51.194;6.840;2023-05-16T09:53:17;15.10;99.90
18083;DHT22;9168;51.194;6.840;2023-05-16T09:55:45;15.30;99.90
18083;DHT22;9168;51.194;6.840;2023-05-16T09:58:16;15.40;99.90
18083;DHT22;9168;51.194;6.840;2023-05-16T10:00:43;15.60;99.90
18083;DHT22;9168;51.194;6.840;2023-05-16T10:03:11;15.80;99.90
18083;DHT22;9168;51.194;6.840;2023-05-16T10:05:39;16.10;99.90
18083;DHT22;9168;51.194;6.840;2023-05-16T10:08:06;16.40;99.90
18083;DHT22;9168;51.194;6.840;2023-05-16T10:10:35;16.70;99.90
18083;DHT22;9168;51.194;6.840;2023-05-16T10:13:06;16.80;99.90
18083;DHT22;9168;51.194;6.840;2023-05-16T10:15:36;16.80;99.90
18083;DHT22;9168;51.194;6.840;2023-05-16T10:18:04;16.70;99.90
18083;DHT22;9168;51.194;6.840;2023-05-16T10:20:37;16.50;99.90
18083;DHT22;9168;51.194;6.840;2023-05-16T10:23:05;16.40;99.90
18083;DHT22;9168;51.194;6.840;2023-05-16T10:25:35;16.30;99.90
18083;DHT22;9168;51.194;6.840;2023-05-16T10:28:06;16.30;99.90
18083;DHT22;9168;51.194;6.840;2023-05-16T10:30:34;16.20;99.90
18083;DHT22;9168;51.194;6.840;2023-05-16T10:33:02;16.00;99.90
18083;DHT22;9168;51.194;6.840;2023-05-16T10:35:30;15.90;99.90
18083;DHT22;9168;51.194;6.840;2023-05-16T10:37:57;15.70;99.90
18083;DHT22;9168;51.194;6.840;2023-05-16T10:40:24;15.60;99.90
18083;DHT22;9168;51.194;6.840;2023-05-16T10:42:56;15.60;99.90
18083;DHT22;9168;51.194;6.840;2023-05-16T10:45:24;15.70;99.90
18083;DHT22;9168;51.194;6.840;2023-05-16T10:47:52;15.80;99.90
18083;DHT22;9168;51.194;6.840;2023-05-16T10:50:36;16.10;99.90
18083;DHT22;9168;51.194;6.840;2023-05-16T10:53:14;16.30;99.90
18083;DHT22;9168;51.194;6.840;2023-05-16T10:55:46;16.50;99.90
18083;DHT22;9168;51.194;6.840;2023-05-16T10:58:18;16.70;99.90
18083;DHT22;9168;51.194;6.840;2023-05-16T11:01:17;16.50;99.90
18083;DHT22;9168;51.194;6.840;2023-05-16T11:04:07;16.40;99.90
18083;DHT22;9168;51.194;6.840;2023-05-16T11:06:42;16.30;99.90
18083;DHT22;9168;51.194;6.840;2023-05-16T11:09:21;16.10;99.90
18083;DHT22;9168;51.194;6.840;2023-05-16T11:12:08;15.80;99.90
18083;DHT22;9168;51.194;6.840;2023-05-16T11:14:37;15.60;99.90
18083;DHT22;9168;51.194;6.840;2023-05-16T11:17:09;15.50;99.90
18083;DHT22;9168;51.194;6.840;2023-05-16T11:19:41;15.30;99.90
18083;DHT22;9168;51.194;6.840;2023-05-16T11:22:11;15.20;99.90
18083;DHT22;9168;51.194;6.840;2023-05-16T11:24:49;15.10;99.90
18083;DHT22;9168;51.194;6.840;2023-05-16T11:27:21;15.30;99.90
18083;DHT22;9168;51.194;6.840;2023-05-16T11:29:49;16.20;99.90
18083;DHT22;9168;51.194;6.840;2023-05-16T11:32:20;17.00;99.90
18083;DHT22;9168;51.194;6.840;2023-05-16T11:34:48;17.50;99.90
18083;DHT22;9168;51.194;6.840;2023-05-16T11:37:16;18.30;99.90
18083;DHT22;9168;51.194;6.840;2023-05-16T11:39:44;18.80;99.90
18083;DHT22;9168;51.194;6.840;2023-05-16T11:42:11;19.60;99.90
18083;DHT22;9168;51.194;6.840;2023-05-16T11:44:38;20.30;99.90
18083;DHT22;9168;51.194;6.840;2023-05-16T11:47:05;20.80;99.90
18083;DHT22;9168;51.194;6.840;2023-05-16T11:49:34;20.90;99.90
18083;DHT22;9168;51.194;6.840;2023-05-16T11:52:02;20.90;99.90
18083;DHT22;9168;51.194;6.840;2023-05-16T11:54:29;21.50;99.90
18083;DHT22;9168;51.194;6.840;2023-05-16T11:56:56;22.00;99.90
18083;DHT22;9168;51.194;6.840;2023-05-16T11:59:24;22.10;99.90
18083;DHT22;9168;51.194;6.840;2023-05-16T12:01:51;21.90;99.90
18083;DHT22;9168;51.194;6.840;2023-05-16T12:04:18;21.40;99.90
18083;DHT22;9168;51.194;6.840;2023-05-16T12:06:58;21.10;99.90
18083;DHT22;9168;51.194;6.840;2023-05-16T12:09:26;20.70;99.90
18083;DHT22;9168;51.194;6.840;2023-05-16T12:11:52;20.30;99.90
18083;DHT22;9168;51.194;6.840;2023-05-16T12:14:20;20.00;99.90
18083;DHT22;9168;51.194;6.840;2023-05-16T12:16:47;19.70;99.90
18083;DHT22;9168;51.194;6.840;2023-05-16T12:19:15;19.60;99.90
18083;DHT22;9168;51.194;6.840;2023-05-16T12:21:42;19.60;99.90
18083;DHT22;9168;51.194;6.840;2023-05-16T12:24:10;19.40;99.90
18083;DHT22;9168;51.194;6.840;2023-05-16T12:26:39;19.20;99.90
18083;DHT22;9168;51.194;6.840;2023-05-16T12:29:12;19.20;99.90
18083;DHT22;9168;51.194;6.840;2023-05-16T12:31:52;19.80;99.90
18083;DHT22;9168;51.194;6.840;2023-05-16T12:34:20;20.90;99.90
18083;DHT22;9168;51.194;6.840;2023-05-16T12:36:50;22.00;99.90
18083;DHT22;9168;51.194;6.840;2023-05-16T12:39:19;22.80;99.90
18083;DHT22;9168;51.194;6.840;2023-05-16T12:41:47;23.50;99.90
18083;DHT22;9168;51.194;6.840;2023-05-16T12:44:15;23.90;99.90
18083;DHT22;9168;51.194;6.840;2023-05-16T12:46:45;24.50;99.90
18083;DHT22;9168;51.194;6.840;2023-05-16T12:49:12;25.00;99.90
18083;DHT22;9168;51.194;6.840;2023-05-16T12:51:39;25.40;98.70
18083;DHT22;9168;51.194;6.840;2023-05-16T12:54:08;25.90;99.20
18083;DHT22;9168;51.194;6.840;2023-05-16T12:56:37;26.10;97.30
18083;DHT22;9168;51.194;6.840;2023-05-16T12:59:04;26.20;95.50
18083;DHT22;9168;51.194;6.840;2023-05-16T13:01:32;26.40;96.90
18083;DHT22;9168;51.194;6.840;2023-05-16T13:04:00;26.70;95.70
18083;DHT22;9168;51.194;6.840;2023-05-16T13:06:27;26.50;93.60
18083;DHT22;9168;51.194;6.840;2023-05-16T13:08:54;26.40;93.00
18083;DHT22;9168;51.194;6.840;2023-05-16T13:11:22;26.60;92.60
18083;DHT22;9168;51.194;6.840;2023-05-16T13:13:50;26.60;91.60
18083;DHT22;9168;51.194;6.840;2023-05-16T13:16:17;27.00;91.50
18083;DHT22;9168;51.194;6.840;2023-05-16T13:18:44;27.00;90.60
18083;DHT22;9168;51.194;6.840;2023-05-16T13:21:11;27.20;90.00
18083;DHT22;9168;51.194;6.840;2023-05-16T13:23:38;27.10;90.60
18083;DHT22;9168;51.194;6.840;2023-05-16T13:26:05;26.50;88.20
18083;DHT22;9168;51.194;6.840;2023-05-16T13:28:32;26.00;86.40
18083;DHT22;9168;51.194;6.840;2023-05-16T13:31:00;25.80;86.00
18083;DHT22;9168;51.194;6.840;2023-05-16T13:33:27;25.70;84.60
18083;DHT22;9168;51.194;6.840;2023-05-16T13:35:54;25.70;88.10
18083;DHT22;9168;51.194;6.840;2023-05-16T13:38:21;25.30;82.40
18083;DHT22;9168;51.194;6.840;2023-05-16T13:40:48;25.10;87.10
18083;DHT22;9168;51.194;6.840;2023-05-16T13:43:15;24.60;87.00
18083;DHT22;9168;51.194;6.840;2023-05-16T13:45:42;24.00;88.10
18083;DHT22;9168;51.194;6.840;2023-05-16T13:48:11;23.80;89.50
18083;DHT22;9168;51.194;6.840;2023-05-16T13:50:38;23.40;89.00
18083;DHT22;9168;51.194;6.840;2023-05-16T13:53:05;22.80;90.30
18083;DHT22;9168;51.194;6.840;2023-05-16T13:55:32;22.20;91.40
18083;DHT22;9168;51.194;6.840;2023-05-16T13:57:58;21.60;91.90
18083;DHT22;9168;51.194;6.840;2023-05-16T14:00:25;21.10;93.20
18083;DHT22;9168;51.194;6.840;2023-05-16T14:02:52;21.20;93.90
18083;DHT22;9168;51.194;6.840;2023-05-16T14:05:20;21.50;93.90
18083;DHT22;9168;51.194;6.840;2023-05-16T14:07:47;21.70;93.00
18083;DHT22;9168;51.194;6.840;2023-05-16T14:10:14;21.60;92.00
18083;DHT22;9168;51.194;6.840;2023-05-16T14:12:41;21.50;92.60
18083;DHT22;9168;51.194;6.840;2023-05-16T14:15:08;21.10;93.10
18083;DHT22;9168;51.194;6.840;2023-05-16T14:17:35;20.80;92.50
18083;DHT22;9168;51.194;6.840;2023-05-16T14:20:03;20.40;92.80
18083;DHT22;9168;51.194;6.840;2023-05-16T14:22:34;20.00;93.70
18083;DHT22;9168;51.194;6.840;2023-05-16T14:25:01;19.70;94.70
18083;DHT22;9168;51.194;6.840;2023-05-16T14:27:29;19.40;94.40
18083;DHT22;9168;51.194;6.840;2023-05-16T14:29:56;19.20;96.10
18083;DHT22;9168;51.194;6.840;2023-05-16T14:32:23;19.00;96.40
18083;DHT22;9168;51.194;6.840;2023-05-16T14:34:50;18.90;97.20
18083;DHT22;9168;51.194;6.840;2023-05-16T14:37:17;18.70;97.50
18083;DHT22;9168;51.194;6.840;2023-05-16T14:39:46;18.70;97.10
18083;DHT22;9168;51.194;6.840;2023-05-16T14:42:15;18.50;96.30
18083;DHT22;9168;51.194;6.840;2023-05-16T14:44:42;18.60;98.40
18083;DHT22;9168;51.194;6.840;2023-05-16T14:47:09;18.60;98.20
18083;DHT22;9168;51.194;6.840;2023-05-16T14:49:36;18.50;99.30
18083;DHT22;9168;51.194;6.840;2023-05-16T14:52:03;18.40;99.30
18083;DHT22;9168;51.194;6.840;2023-05-16T14:54:30;18.30;99.90
18083;DHT22;9168;51.194;6.840;2023-05-16T14:56:59;18.20;99.10
18083;DHT22;9168;51.194;6.840;2023-05-16T14:59:26;17.90;99.00
18083;DHT22;9168;51.194;6.840;2023-05-16T15:01:53;17.80;99.70
18083;DHT22;9168;51.194;6.840;2023-05-16T15:04:19;17.60;99.90
18083;DHT22;9168;51.194;6.840;2023-05-16T15:06:46;17.50;99.80
18083;DHT22;9168;51.194;6.840;2023-05-16T15:09:13;17.40;99.60
18083;DHT22;9168;51.194;6.840;2023-05-16T15:11:40;17.30;99.50
18083;DHT22;9168;51.194;6.840;2023-05-16T15:14:08;17.30;99.90
18083;DHT22;9168;51.194;6.840;2023-05-16T15:16:35;17.50;99.20
18083;DHT22;9168;51.194;6.840;2023-05-16T15:19:02;17.60;99.90
18083;DHT22;9168;51.194;6.840;2023-05-16T15:21:29;17.70;99.60
18083;DHT22;9168;51.194;6.840;2023-05-16T15:23:56;17.80;99.70
18083;DHT22;9168;51.194;6.840;2023-05-16T15:26:24;17.80;99.20
18083;DHT22;9168;51.194;6.840;2023-05-16T15:28:51;17.90;99.10
18083;DHT22;9168;51.194;6.840;2023-05-16T15:31:21;17.80;99.40
18083;DHT22;9168;51.194;6.840;2023-05-16T15:33:48;17.70;99.70
18083;DHT22;9168;51.194;6.840;2023-05-16T15:36:15;17.60;99.90
18083;DHT22;9168;51.194;6.840;2023-05-16T15:38:42;17.60;99.90
18083;DHT22;9168;51.194;6.840;2023-05-16T15:41:10;17.60;99.90
18083;DHT22;9168;51.194;6.840;2023-05-16T15:43:37;17.60;99.90
18083;DHT22;9168;51.194;6.840;2023-05-16T15:46:07;17.50;99.90
18083;DHT22;9168;51.194;6.840;2023-05-16T15:48:36;17.50;99.90
18083;DHT22;9168;51.194;6.840;2023-05-16T15:51:07;17.50;99.90